sensor_id;sensor_type;location;lat;lon;timestamp;P1;durP1;ratioP1;P2;durP2;ratioP2
80694;SDS011;70059;42.702;23.312;2024-03-23T00:54:05;25.35;;;16.45;;
80694;SDS011;70059;42.702;23.312;2024-03-23T00:56:37;33.92;;;16.90;;
80694;SDS011;70059;42.702;23.312;2024-03-23T00:59:03;33.63;;;16.65;;
80694;SDS011;70059;42.702;23.312;2024-03-23T01:01:29;29.60;;;17.00;;
80694;SDS011;70059;42.702;23.312;2024-03-23T01:04:01;24.83;;;15.93;;
80694;SDS011;70059;42.702;23.312;2024-03-23T01:06:28;28.00;;;16.58;;
80694;SDS011;70059;42.702;23.312;2024-03-23T01:08:53;30.77;;;17.10;;
80694;SDS011;70059;42.702;23.312;2024-03-23T01:11:19;30.70;;;16.55;;
80694;SDS011;70059;42.702;23.312;2024-03-23T01:13:44;24.50;;;15.50;;
80694;SDS011;70059;42.702;23.312;2024-03-23T01:16:16;26.98;;;14.82;;
80694;SDS011;70059;42.702;23.312;2024-03-23T01:18:46;24.10;;;14.88;;
80694;SDS011;70059;42.702;23.312;2024-03-23T01:21:12;20.85;;;13.38;;
80694;SDS011;70059;42.702;23.312;2024-03-23T01:23:37;23.42;;;13.10;;
80694;SDS011;70059;42.702;23.312;2024-03-23T01:26:03;23.33;;;14.00;;
80694;SDS011;70059;42.702;23.312;2024-03-23T01:28:28;20.70;;;13.90;;
80694;SDS011;70059;42.702;23.312;2024-03-23T01:30:54;21.67;;;13.90;;
80694;SDS011;70059;42.702;23.312;2024-03-23T01:33:20;25.83;;;14.75;;
80694;SDS011;70059;42.702;23.312;2024-03-23T01:35:45;21.15;;;13.38;;
80694;SDS011;70059;42.702;23.312;2024-03-23T01:38:11;22.02;;;13.13;;
80694;SDS011;70059;42.702;23.312;2024-03-23T01:40:36;22.20;;;12.43;;
80694;SDS011;70059;42.702;23.312;2024-03-23T01:43:06;22.95;;;13.35;;
80694;SDS011;70059;42.702;23.312;2024-03-23T01:45:33;19.33;;;12.63;;
80694;SDS011;70059;42.702;23.312;2024-03-23T01:47:59;20.80;;;12.57;;
80694;SDS011;70059;42.702;23.312;2024-03-23T01:50:25;22.15;;;13.20;;
80694;SDS011;70059;42.702;23.312;2024-03-23T01:52:52;19.83;;;12.52;;
80694;SDS011;70059;42.702;23.312;2024-03-23T01:55:19;22.55;;;13.80;;
80694;SDS011;70059;42.702;23.312;2024-03-23T01:57:45;26.15;;;13.80;;
80694;SDS011;70059;42.702;23.312;2024-03-23T02:00:11;23.15;;;13.60;;
80694;SDS011;70059;42.702;23.312;2024-03-23T02:02:46;24.10;;;13.88;;
80694;SDS011;70059;42.702;23.312;2024-03-23T02:05:12;22.35;;;13.77;;
80694;SDS011;70059;42.702;23.312;2024-03-23T02:07:39;20.42;;;12.82;;
80694;SDS011;70059;42.702;23.312;2024-03-23T02:10:06;19.63;;;13.60;;
80694;SDS011;70059;42.702;23.312;2024-03-23T02:12:32;21.15;;;14.48;;
80694;SDS011;70059;42.702;23.312;2024-03-23T02:14:58;26.25;;;14.25;;
80694;SDS011;70059;42.702;23.312;2024-03-23T02:17:24;22.15;;;13.90;;
80694;SDS011;70059;42.702;23.312;2024-03-23T02:19:50;26.25;;;14.18;;
80694;SDS011;70059;42.702;23.312;2024-03-23T02:22:17;22.27;;;14.27;;
80694;SDS011;70059;42.702;23.312;2024-03-23T02:24:43;21.70;;;13.43;;
80694;SDS011;70059;42.702;23.312;2024-03-23T02:27:08;23.52;;;14.10;;
80694;SDS011;70059;42.702;23.312;2024-03-23T02:29:34;22.00;;;13.70;;
80694;SDS011;70059;42.702;23.312;2024-03-23T02:32:05;21.58;;;13.65;;
80694;SDS011;70059;42.702;23.312;2024-03-23T02:34:31;21.98;;;13.85;;
80694;SDS011;70059;42.702;23.312;2024-03-23T02:36:57;22.90;;;14.18;;
80694;SDS011;70059;42.702;23.312;2024-03-23T02:39:25;20.10;;;14.05;;
80694;SDS011;70059;42.702;23.312;2024-03-23T02:41:51;21.50;;;13.38;;
80694;SDS011;70059;42.702;23.312;2024-03-23T02:44:16;25.42;;;13.82;;
80694;SDS011;70059;42.702;23.312;2024-03-23T02:46:42;25.10;;;14.80;;
80694;SDS011;70059;42.702;23.312;2024-03-23T02:49:08;23.17;;;13.85;;
80694;SDS011;70059;42.702;23.312;2024-03-23T02:51:33;21.73;;;12.95;;
80694;SDS011;70059;42.702;23.312;2024-03-23T02:54:05;22.08;;;12.98;;
80694;SDS011;70059;42.702;23.312;2024-03-23T02:56:32;20.27;;;12.38;;
80694;SDS011;70059;42.702;23.312;2024-03-23T02:58:58;17.85;;;12.15;;
80694;SDS011;70059;42.702;23.312;2024-03-23T03:01:24;18.13;;;12.27;;
80694;SDS011;70059;42.702;23.312;2024-03-23T03:03:50;20.77;;;12.57;;
80694;SDS011;70059;42.702;23.312;2024-03-23T03:06:25;18.55;;;12.95;;
80694;SDS011;70059;42.702;23.312;2024-03-23T03:08:51;23.73;;;12.75;;
80694;SDS011;70059;42.702;23.312;2024-03-23T03:11:17;19.23;;;12.10;;
80694;SDS011;70059;42.702;23.312;2024-03-23T03:13:43;17.90;;;11.32;;
80694;SDS011;70059;42.702;23.312;2024-03-23T03:16:11;17.35;;;11.48;;
80694;SDS011;70059;42.702;23.312;2024-03-23T03:18:38;16.52;;;11.73;;
80694;SDS011;70059;42.702;23.312;2024-03-23T03:21:05;19.52;;;11.75;;
80694;SDS011;70059;42.702;23.312;2024-03-23T03:23:38;21.83;;;12.25;;
80694;SDS011;70059;42.702;23.312;2024-03-23T03:26:08;16.90;;;11.38;;
80694;SDS011;70059;42.702;23.312;2024-03-23T03:28:34;17.15;;;12.00;;
80694;SDS011;70059;42.702;23.312;2024-03-23T03:31:00;21.05;;;12.05;;
80694;SDS011;70059;42.702;23.312;2024-03-23T03:33:29;19.30;;;11.57;;
80694;SDS011;70059;42.702;23.312;2024-03-23T03:35:54;18.05;;;12.05;;
80694;SDS011;70059;42.702;23.312;2024-03-23T03:38:20;20.70;;;11.65;;
80694;SDS011;70059;42.702;23.312;2024-03-23T03:40:46;23.70;;;11.40;;
80694;SDS011;70059;42.702;23.312;2024-03-23T03:43:15;16.33;;;10.95;;
80694;SDS011;70059;42.702;23.312;2024-03-23T03:45:51;17.95;;;10.40;;
80694;SDS011;70059;42.702;23.312;2024-03-23T03:48:18;16.67;;;10.90;;
80694;SDS011;70059;42.702;23.312;2024-03-23T03:50:43;20.23;;;10.48;;
80694;SDS011;70059;42.702;23.312;2024-03-23T03:53:09;19.33;;;10.90;;
80694;SDS011;70059;42.702;23.312;2024-03-23T03:55:35;18.08;;;11.27;;
80694;SDS011;70059;42.702;23.312;2024-03-23T03:58:00;16.65;;;11.05;;
80694;SDS011;70059;42.702;23.312;2024-03-23T04:00:26;17.73;;;10.70;;
80694;SDS011;70059;42.702;23.312;2024-03-23T04:02:52;14.75;;;10.27;;
80694;SDS011;70059;42.702;23.312;2024-03-23T04:05:18;17.27;;;10.32;;
80694;SDS011;70059;42.702;23.312;2024-03-23T04:07:45;18.88;;;11.32;;
80694;SDS011;70059;42.702;23.312;2024-03-23T04:10:11;19.58;;;11.20;;
80694;SDS011;70059;42.702;23.312;2024-03-23T04:12:37;20.38;;;11.18;;
80694;SDS011;70059;42.702;23.312;2024-03-23T04:15:10;18.70;;;11.07;;
80694;SDS011;70059;42.702;23.312;2024-03-23T04:17:36;17.73;;;10.93;;
80694;SDS011;70059;42.702;23.312;2024-03-23T04:20:02;15.73;;;10.40;;
80694;SDS011;70059;42.702;23.312;2024-03-23T04:22:30;15.63;;;10.27;;
80694;SDS011;70059;42.702;23.312;2024-03-23T04:24:56;17.08;;;11.13;;
80694;SDS011;70059;42.702;23.312;2024-03-23T04:27:25;17.27;;;11.32;;
80694;SDS011;70059;42.702;23.312;2024-03-23T04:29:51;20.58;;;11.55;;
80694;SDS011;70059;42.702;23.312;2024-03-23T04:32:18;17.85;;;11.35;;
80694;SDS011;70059;42.702;23.312;2024-03-23T04:34:46;18.95;;;12.23;;
80694;SDS011;70059;42.702;23.312;2024-03-23T04:37:13;18.17;;;11.57;;
80694;SDS011;70059;42.702;23.312;2024-03-23T04:39:39;20.77;;;12.30;;
80694;SDS011;70059;42.702;23.312;2024-03-23T04:42:04;20.60;;;12.25;;
80694;SDS011;70059;42.702;23.312;2024-03-23T04:44:30;27.00;;;16.33;;
80694;SDS011;70059;42.702;23.312;2024-03-23T04:46:59;22.55;;;13.65;;
80694;SDS011;70059;42.702;23.312;2024-03-23T04:49:25;19.80;;;12.10;;
80694;SDS011;70059;42.702;23.312;2024-03-23T04:51:51;20.10;;;11.68;;
80694;SDS011;70059;42.702;23.312;2024-03-23T04:54:17;18.48;;;11.32;;
80694;SDS011;70059;42.702;23.312;2024-03-23T04:56:42;20.17;;;11.13;;
80694;SDS011;70059;42.702;23.312;2024-03-23T04:59:08;16.67;;;10.73;;
80694;SDS011;70059;42.702;23.312;2024-03-23T05:01:34;25.73;;;11.45;;
80694;SDS011;70059;42.702;23.312;2024-03-23T05:04:00;18.85;;;11.35;;
80694;SDS011;70059;42.702;23.312;2024-03-23T05:06:28;18.40;;;12.02;;
80694;SDS011;70059;42.702;23.312;2024-03-23T05:08:56;22.83;;;12.13;;
80694;SDS011;70059;42.702;23.312;2024-03-23T05:11:22;19.23;;;12.38;;
80694;SDS011;70059;42.702;23.312;2024-03-23T05:13:48;21.70;;;12.27;;
80694;SDS011;70059;42.702;23.312;2024-03-23T05:16:18;20.27;;;12.75;;
80694;SDS011;70059;42.702;23.312;2024-03-23T05:18:44;19.77;;;12.20;;
80694;SDS011;70059;42.702;23.312;2024-03-23T05:21:09;17.27;;;12.00;;
80694;SDS011;70059;42.702;23.312;2024-03-23T05:23:35;21.40;;;11.98;;
80694;SDS011;70059;42.702;23.312;2024-03-23T05:26:01;22.23;;;12.02;;
80694;SDS011;70059;42.702;23.312;2024-03-23T05:28:27;20.73;;;12.35;;
80694;SDS011;70059;42.702;23.312;2024-03-23T05:31:00;20.77;;;12.05;;
80694;SDS011;70059;42.702;23.312;2024-03-23T05:33:28;18.80;;;10.93;;
80694;SDS011;70059;42.702;23.312;2024-03-23T05:36:00;15.43;;;10.80;;
80694;SDS011;70059;42.702;23.312;2024-03-23T05:38:26;18.83;;;11.70;;
80694;SDS011;70059;42.702;23.312;2024-03-23T05:40:56;18.50;;;10.80;;
80694;SDS011;70059;42.702;23.312;2024-03-23T05:43:23;15.70;;;10.43;;
80694;SDS011;70059;42.702;23.312;2024-03-23T05:45:55;18.25;;;10.88;;
80694;SDS011;70059;42.702;23.312;2024-03-23T05:48:22;23.20;;;11.95;;
80694;SDS011;70059;42.702;23.312;2024-03-23T05:50:49;20.77;;;11.77;;
80694;SDS011;70059;42.702;23.312;2024-03-23T05:53:15;19.88;;;11.77;;
80694;SDS011;70059;42.702;23.312;2024-03-23T05:55:42;21.05;;;11.75;;
80694;SDS011;70059;42.702;23.312;2024-03-23T05:58:08;16.73;;;10.93;;
80694;SDS011;70059;42.702;23.312;2024-03-23T06:00:34;16.15;;;9.80;;
80694;SDS011;70059;42.702;23.312;2024-03-23T06:02:59;15.48;;;10.85;;
80694;SDS011;70059;42.702;23.312;2024-03-23T06:05:25;15.20;;;10.68;;
80694;SDS011;70059;42.702;23.312;2024-03-23T06:07:51;38.42;;;23.33;;
80694;SDS011;70059;42.702;23.312;2024-03-23T06:10:17;18.80;;;12.23;;
80694;SDS011;70059;42.702;23.312;2024-03-23T06:12:43;18.15;;;11.32;;
80694;SDS011;70059;42.702;23.312;2024-03-23T06:15:10;17.88;;;11.40;;
80694;SDS011;70059;42.702;23.312;2024-03-23T06:17:39;14.98;;;11.23;;
80694;SDS011;70059;42.702;23.312;2024-03-23T06:20:05;18.20;;;12.40;;
80694;SDS011;70059;42.702;23.312;2024-03-23T06:22:32;18.27;;;12.60;;
80694;SDS011;70059;42.702;23.312;2024-03-23T06:24:58;18.10;;;12.05;;
80694;SDS011;70059;42.702;23.312;2024-03-23T06:27:24;17.98;;;12.45;;
80694;SDS011;70059;42.702;23.312;2024-03-23T06:29:50;19.73;;;12.73;;
80694;SDS011;70059;42.702;23.312;2024-03-23T06:32:16;18.88;;;12.95;;
80694;SDS011;70059;42.702;23.312;2024-03-23T06:34:42;19.90;;;12.82;;
80694;SDS011;70059;42.702;23.312;2024-03-23T06:37:11;19.08;;;12.68;;
80694;SDS011;70059;42.702;23.312;2024-03-23T06:39:37;20.40;;;12.70;;
80694;SDS011;70059;42.702;23.312;2024-03-23T06:42:03;18.92;;;12.93;;
80694;SDS011;70059;42.702;23.312;2024-03-23T06:44:29;18.25;;;13.07;;
80694;SDS011;70059;42.702;23.312;2024-03-23T06:46:56;21.38;;;13.60;;
80694;SDS011;70059;42.702;23.312;2024-03-23T06:49:22;21.00;;;13.77;;
80694;SDS011;70059;42.702;23.312;2024-03-23T06:51:48;22.90;;;13.45;;
80694;SDS011;70059;42.702;23.312;2024-03-23T06:54:14;18.48;;;13.65;;
80694;SDS011;70059;42.702;23.312;2024-03-23T06:56:40;24.10;;;14.00;;
80694;SDS011;70059;42.702;23.312;2024-03-23T06:59:06;21.08;;;13.82;;
80694;SDS011;70059;42.702;23.312;2024-03-23T07:01:39;23.98;;;14.13;;
80694;SDS011;70059;42.702;23.312;2024-03-23T07:04:06;24.38;;;14.30;;
80694;SDS011;70059;42.702;23.312;2024-03-23T07:06:31;23.58;;;14.63;;
80694;SDS011;70059;42.702;23.312;2024-03-23T07:08:57;21.20;;;14.13;;
80694;SDS011;70059;42.702;23.312;2024-03-23T07:11:24;25.05;;;15.10;;
80694;SDS011;70059;42.702;23.312;2024-03-23T07:13:50;22.27;;;14.80;;
80694;SDS011;70059;42.702;23.312;2024-03-23T07:16:17;24.23;;;14.65;;
80694;SDS011;70059;42.702;23.312;2024-03-23T07:18:43;29.52;;;15.27;;
80694;SDS011;70059;42.702;23.312;2024-03-23T07:21:09;23.80;;;16.08;;
80694;SDS011;70059;42.702;23.312;2024-03-23T07:23:35;21.73;;;14.07;;
80694;SDS011;70059;42.702;23.312;2024-03-23T07:26:03;25.17;;;14.82;;
80694;SDS011;70059;42.702;23.312;2024-03-23T07:28:33;22.40;;;13.50;;
80694;SDS011;70059;42.702;23.312;2024-03-23T07:31:09;21.58;;;14.27;;
80694;SDS011;70059;42.702;23.312;2024-03-23T07:33:42;23.52;;;14.18;;
80694;SDS011;70059;42.702;23.312;2024-03-23T07:36:10;21.58;;;14.32;;
80694;SDS011;70059;42.702;23.312;2024-03-23T07:38:35;19.83;;;13.73;;
80694;SDS011;70059;42.702;23.312;2024-03-23T07:41:05;22.65;;;14.20;;
80694;SDS011;70059;42.702;23.312;2024-03-23T07:43:31;20.27;;;13.75;;
80694;SDS011;70059;42.702;23.312;2024-03-23T07:45:57;19.05;;;13.75;;
80694;SDS011;70059;42.702;23.312;2024-03-23T07:48:23;22.95;;;14.43;;
80694;SDS011;70059;42.702;23.312;2024-03-23T07:53:45;20.55;;;13.93;;
80694;SDS011;70059;42.702;23.312;2024-03-23T07:56:14;20.83;;;14.27;;
80694;SDS011;70059;42.702;23.312;2024-03-23T07:58:40;15.07;;;13.35;;
80694;SDS011;70059;42.702;23.312;2024-03-23T08:01:09;24.52;;;13.93;;
80694;SDS011;70059;42.702;23.312;2024-03-23T08:03:37;24.15;;;14.20;;
80694;SDS011;70059;42.702;23.312;2024-03-23T08:06:13;21.75;;;14.00;;
80694;SDS011;70059;42.702;23.312;2024-03-23T08:08:45;19.23;;;14.15;;
80694;SDS011;70059;42.702;23.312;2024-03-23T08:11:11;20.38;;;14.73;;
80694;SDS011;70059;42.702;23.312;2024-03-23T08:13:39;23.20;;;14.50;;
80694;SDS011;70059;42.702;23.312;2024-03-23T08:16:05;19.63;;;14.52;;
80694;SDS011;70059;42.702;23.312;2024-03-23T08:18:31;21.85;;;15.65;;
80694;SDS011;70059;42.702;23.312;2024-03-23T08:20:58;19.35;;;16.20;;
80694;SDS011;70059;42.702;23.312;2024-03-23T08:23:25;20.58;;;15.30;;
80694;SDS011;70059;42.702;23.312;2024-03-23T08:25:52;37.72;;;20.90;;
80694;SDS011;70059;42.702;23.312;2024-03-23T08:28:22;24.65;;;16.45;;
80694;SDS011;70059;42.702;23.312;2024-03-23T08:30:48;19.67;;;15.07;;
80694;SDS011;70059;42.702;23.312;2024-03-23T08:33:14;17.95;;;14.52;;
80694;SDS011;70059;42.702;23.312;2024-03-23T08:35:54;21.48;;;15.60;;
80694;SDS011;70059;42.702;23.312;2024-03-23T08:38:21;19.95;;;16.40;;
80694;SDS011;70059;42.702;23.312;2024-03-23T08:40:48;20.95;;;15.90;;
80694;SDS011;70059;42.702;23.312;2024-03-23T08:43:21;17.13;;;15.30;;
80694;SDS011;70059;42.702;23.312;2024-03-23T08:45:46;21.00;;;15.95;;
80694;SDS011;70059;42.702;23.312;2024-03-23T08:48:13;22.35;;;16.40;;
80694;SDS011;70059;42.702;23.312;2024-03-23T08:50:39;19.60;;;16.33;;
80694;SDS011;70059;42.702;23.312;2024-03-23T08:53:04;22.70;;;18.20;;
80694;SDS011;70059;42.702;23.312;2024-03-23T08:55:30;19.33;;;15.32;;
80694;SDS011;70059;42.702;23.312;2024-03-23T08:57:57;22.95;;;16.27;;
80694;SDS011;70059;42.702;23.312;2024-03-23T09:00:22;17.85;;;15.95;;
80694;SDS011;70059;42.702;23.312;2024-03-23T09:02:49;20.80;;;16.33;;
80694;SDS011;70059;42.702;23.312;2024-03-23T09:05:15;24.33;;;16.63;;
80694;SDS011;70059;42.702;23.312;2024-03-23T09:07:42;20.48;;;16.83;;
80694;SDS011;70059;42.702;23.312;2024-03-23T09:10:08;19.33;;;17.38;;
80694;SDS011;70059;42.702;23.312;2024-03-23T09:12:34;21.75;;;17.17;;
80694;SDS011;70059;42.702;23.312;2024-03-23T09:14:59;20.80;;;17.98;;
80694;SDS011;70059;42.702;23.312;2024-03-23T09:17:25;21.60;;;17.33;;
80694;SDS011;70059;42.702;23.312;2024-03-23T09:19:51;22.17;;;17.52;;
80694;SDS011;70059;42.702;23.312;2024-03-23T09:22:16;20.20;;;17.63;;
80694;SDS011;70059;42.702;23.312;2024-03-23T09:24:42;20.30;;;17.48;;
80694;SDS011;70059;42.702;23.312;2024-03-23T09:27:08;19.38;;;16.98;;
80694;SDS011;70059;42.702;23.312;2024-03-23T09:29:33;22.23;;;17.63;;
80694;SDS011;70059;42.702;23.312;2024-03-23T09:31:59;22.13;;;18.15;;
80694;SDS011;70059;42.702;23.312;2024-03-23T09:34:25;22.48;;;18.52;;
80694;SDS011;70059;42.702;23.312;2024-03-23T09:37:04;21.15;;;18.95;;
80694;SDS011;70059;42.702;23.312;2024-03-23T09:39:32;23.77;;;18.48;;
80694;SDS011;70059;42.702;23.312;2024-03-23T09:41:58;21.45;;;18.95;;
80694;SDS011;70059;42.702;23.312;2024-03-23T09:44:24;21.88;;;17.52;;
80694;SDS011;70059;42.702;23.312;2024-03-23T09:46:51;22.08;;;16.42;;
80694;SDS011;70059;42.702;23.312;2024-03-23T09:49:17;21.48;;;17.70;;
80694;SDS011;70059;42.702;23.312;2024-03-23T09:51:42;21.38;;;17.83;;
80694;SDS011;70059;42.702;23.312;2024-03-23T09:54:08;24.27;;;17.08;;
80694;SDS011;70059;42.702;23.312;2024-03-23T09:56:34;19.40;;;17.38;;
80694;SDS011;70059;42.702;23.312;2024-03-23T09:59:02;23.58;;;17.95;;
80694;SDS011;70059;42.702;23.312;2024-03-23T10:01:29;19.13;;;16.90;;
80694;SDS011;70059;42.702;23.312;2024-03-23T10:03:55;18.60;;;16.75;;
80694;SDS011;70059;42.702;23.312;2024-03-23T10:06:22;19.98;;;16.45;;
80694;SDS011;70059;42.702;23.312;2024-03-23T10:08:50;19.55;;;17.35;;
80694;SDS011;70059;42.702;23.312;2024-03-23T10:11:16;19.25;;;16.85;;
80694;SDS011;70059;42.702;23.312;2024-03-23T10:13:43;19.02;;;16.98;;
80694;SDS011;70059;42.702;23.312;2024-03-23T10:16:09;19.85;;;16.48;;
80694;SDS011;70059;42.702;23.312;2024-03-23T10:18:39;22.38;;;17.27;;
80694;SDS011;70059;42.702;23.312;2024-03-23T10:23:30;18.25;;;16.08;;
80694;SDS011;70059;42.702;23.312;2024-03-23T10:26:13;17.73;;;15.82;;
80694;SDS011;70059;42.702;23.312;2024-03-23T10:29:13;17.48;;;15.68;;
80694;SDS011;70059;42.702;23.312;2024-03-23T10:31:36;16.92;;;15.15;;
80694;SDS011;70059;42.702;23.312;2024-03-23T10:34:05;16.98;;;15.35;;
80694;SDS011;70059;42.702;23.312;2024-03-23T10:36:30;16.65;;;15.07;;
80694;SDS011;70059;42.702;23.312;2024-03-23T10:38:56;17.13;;;15.43;;
80694;SDS011;70059;42.702;23.312;2024-03-23T10:41:25;18.10;;;16.15;;
80694;SDS011;70059;42.702;23.312;2024-03-23T10:43:52;17.37;;;15.23;;
80694;SDS011;70059;42.702;23.312;2024-03-23T10:46:20;18.42;;;16.27;;
80694;SDS011;70059;42.702;23.312;2024-03-23T10:48:46;17.02;;;15.32;;
80694;SDS011;70059;42.702;23.312;2024-03-23T10:51:12;16.67;;;14.57;;
80694;SDS011;70059;42.702;23.312;2024-03-23T10:53:42;15.82;;;14.32;;
80694;SDS011;70059;42.702;23.312;2024-03-23T10:56:11;17.20;;;14.80;;
80694;SDS011;70059;42.702;23.312;2024-03-23T10:58:46;15.68;;;14.10;;
80694;SDS011;70059;42.702;23.312;2024-03-23T11:01:14;16.30;;;14.60;;
80694;SDS011;70059;42.702;23.312;2024-03-23T11:03:46;19.00;;;16.25;;
80694;SDS011;70059;42.702;23.312;2024-03-23T11:06:35;15.02;;;13.50;;
80694;SDS011;70059;42.702;23.312;2024-03-23T11:09:19;17.35;;;13.95;;
80694;SDS011;70059;42.702;23.312;2024-03-23T11:14:48;18.60;;;14.50;;
80694;SDS011;70059;42.702;23.312;2024-03-23T11:17:22;15.02;;;13.52;;
80694;SDS011;70059;42.702;23.312;2024-03-23T11:19:59;19.25;;;13.50;;
80694;SDS011;70059;42.702;23.312;2024-03-23T11:25:19;17.95;;;12.85;;
80694;SDS011;70059;42.702;23.312;2024-03-23T11:27:47;13.43;;;12.20;;
80694;SDS011;70059;42.702;23.312;2024-03-23T11:30:20;15.43;;;13.25;;
80694;SDS011;70059;42.702;23.312;2024-03-23T11:32:48;15.93;;;13.68;;
80694;SDS011;70059;42.702;23.312;2024-03-23T11:35:27;14.02;;;12.82;;
80694;SDS011;70059;42.702;23.312;2024-03-23T11:40:39;15.05;;;13.68;;
80694;SDS011;70059;42.702;23.312;2024-03-23T11:43:15;16.30;;;12.80;;
80694;SDS011;70059;42.702;23.312;2024-03-23T11:45:48;14.98;;;13.07;;
80694;SDS011;70059;42.702;23.312;2024-03-23T11:48:18;15.15;;;12.52;;
80694;SDS011;70059;42.702;23.312;2024-03-23T11:50:46;13.45;;;12.13;;
80694;SDS011;70059;42.702;23.312;2024-03-23T11:55:58;12.63;;;11.32;;
80694;SDS011;70059;42.702;23.312;2024-03-23T11:58:25;13.65;;;12.07;;
80694;SDS011;70059;42.702;23.312;2024-03-23T12:03:20;14.95;;;11.65;;
80694;SDS011;70059;42.702;23.312;2024-03-23T12:05:50;12.82;;;11.00;;
80694;SDS011;70059;42.702;23.312;2024-03-23T12:08:33;15.63;;;12.98;;
80694;SDS011;70059;42.702;23.312;2024-03-23T12:11:06;12.95;;;11.65;;
80694;SDS011;70059;42.702;23.312;2024-03-23T12:13:35;16.95;;;11.63;;
80694;SDS011;70059;42.702;23.312;2024-03-23T12:18:42;13.38;;;11.45;;
80694;SDS011;70059;42.702;23.312;2024-03-23T12:21:10;12.68;;;11.35;;
80694;SDS011;70059;42.702;23.312;2024-03-23T12:23:39;18.40;;;13.27;;
80694;SDS011;70059;42.702;23.312;2024-03-23T12:26:05;11.35;;;10.30;;
80694;SDS011;70059;42.702;23.312;2024-03-23T12:28:31;11.65;;;10.63;;
80694;SDS011;70059;42.702;23.312;2024-03-23T12:30:57;18.83;;;8.73;;
80694;SDS011;70059;42.702;23.312;2024-03-23T12:33:23;11.77;;;10.63;;
80694;SDS011;70059;42.702;23.312;2024-03-23T12:35:49;13.05;;;10.70;;
80694;SDS011;70059;42.702;23.312;2024-03-23T12:38:16;13.77;;;10.55;;
80694;SDS011;70059;42.702;23.312;2024-03-23T12:40:42;12.73;;;10.27;;
80694;SDS011;70059;42.702;23.312;2024-03-23T12:43:15;11.13;;;10.13;;
80694;SDS011;70059;42.702;23.312;2024-03-23T12:45:49;11.75;;;10.13;;
80694;SDS011;70059;42.702;23.312;2024-03-23T12:48:15;12.45;;;11.25;;
80694;SDS011;70059;42.702;23.312;2024-03-23T12:50:43;14.10;;;9.85;;
80694;SDS011;70059;42.702;23.312;2024-03-23T12:53:09;11.07;;;10.15;;
80694;SDS011;70059;42.702;23.312;2024-03-23T12:55:34;8.80;;;8.00;;
80694;SDS011;70059;42.702;23.312;2024-03-23T12:58:00;9.82;;;8.85;;
80694;SDS011;70059;42.702;23.312;2024-03-23T13:00:26;7.45;;;6.85;;
80694;SDS011;70059;42.702;23.312;2024-03-23T13:02:52;7.55;;;6.95;;
80694;SDS011;70059;42.702;23.312;2024-03-23T13:05:18;9.13;;;7.05;;
80694;SDS011;70059;42.702;23.312;2024-03-23T13:07:43;7.85;;;7.15;;
80694;SDS011;70059;42.702;23.312;2024-03-23T13:10:09;7.80;;;7.10;;
80694;SDS011;70059;42.702;23.312;2024-03-23T13:12:35;7.63;;;7.03;;
80694;SDS011;70059;42.702;23.312;2024-03-23T13:15:01;8.23;;;7.28;;
80694;SDS011;70059;42.702;23.312;2024-03-23T13:17:27;8.07;;;7.30;;
80694;SDS011;70059;42.702;23.312;2024-03-23T13:19:56;7.50;;;6.90;;
80694;SDS011;70059;42.702;23.312;2024-03-23T13:22:22;6.85;;;6.38;;
80694;SDS011;70059;42.702;23.312;2024-03-23T13:24:47;7.57;;;6.90;;
80694;SDS011;70059;42.702;23.312;2024-03-23T13:27:13;7.75;;;7.22;;
80694;SDS011;70059;42.702;23.312;2024-03-23T13:29:39;7.95;;;7.40;;
80694;SDS011;70059;42.702;23.312;2024-03-23T13:32:05;7.45;;;6.85;;
80694;SDS011;70059;42.702;23.312;2024-03-23T13:34:31;7.50;;;7.00;;
80694;SDS011;70059;42.702;23.312;2024-03-23T13:36:58;7.40;;;6.70;;
80694;SDS011;70059;42.702;23.312;2024-03-23T13:39:23;6.72;;;6.30;;
80694;SDS011;70059;42.702;23.312;2024-03-23T13:41:50;7.03;;;6.43;;
80694;SDS011;70059;42.702;23.312;2024-03-23T13:44:16;7.45;;;6.75;;
80694;SDS011;70059;42.702;23.312;2024-03-23T13:46:41;8.05;;;7.05;;
80694;SDS011;70059;42.702;23.312;2024-03-23T13:49:24;7.28;;;6.78;;
80694;SDS011;70059;42.702;23.312;2024-03-23T13:51:54;8.25;;;7.45;;
80694;SDS011;70059;42.702;23.312;2024-03-23T13:54:20;7.60;;;6.90;;
80694;SDS011;70059;42.702;23.312;2024-03-23T13:56:50;7.88;;;7.03;;
80694;SDS011;70059;42.702;23.312;2024-03-23T13:59:18;7.72;;;7.00;;
80694;SDS011;70059;42.702;23.312;2024-03-23T14:01:44;7.60;;;7.05;;
80694;SDS011;70059;42.702;23.312;2024-03-23T14:04:13;7.80;;;7.18;;
80694;SDS011;70059;42.702;23.312;2024-03-23T14:06:41;7.03;;;6.50;;
80694;SDS011;70059;42.702;23.312;2024-03-23T14:09:07;7.47;;;6.88;;
80694;SDS011;70059;42.702;23.312;2024-03-23T14:11:36;8.00;;;7.43;;
80694;SDS011;70059;42.702;23.312;2024-03-23T14:14:03;7.68;;;7.07;;
80694;SDS011;70059;42.702;23.312;2024-03-23T14:16:30;7.82;;;7.22;;
80694;SDS011;70059;42.702;23.312;2024-03-23T14:18:56;7.72;;;7.22;;
80694;SDS011;70059;42.702;23.312;2024-03-23T14:21:29;7.30;;;6.72;;
80694;SDS011;70059;42.702;23.312;2024-03-23T14:23:55;7.38;;;6.88;;
80694;SDS011;70059;42.702;23.312;2024-03-23T14:26:21;7.43;;;6.75;;
80694;SDS011;70059;42.702;23.312;2024-03-23T14:28:49;7.90;;;7.35;;
80694;SDS011;70059;42.702;23.312;2024-03-23T14:31:15;7.60;;;6.90;;
80694;SDS011;70059;42.702;23.312;2024-03-23T14:33:41;7.78;;;7.00;;
80694;SDS011;70059;42.702;23.312;2024-03-23T14:36:11;8.13;;;6.93;;
80694;SDS011;70059;42.702;23.312;2024-03-23T14:38:37;7.53;;;6.75;;
80694;SDS011;70059;42.702;23.312;2024-03-23T14:41:03;7.05;;;6.47;;
80694;SDS011;70059;42.702;23.312;2024-03-23T14:43:29;7.18;;;6.57;;
80694;SDS011;70059;42.702;23.312;2024-03-23T14:46:08;6.72;;;6.18;;
80694;SDS011;70059;42.702;23.312;2024-03-23T14:48:38;7.20;;;6.60;;
80694;SDS011;70059;42.702;23.312;2024-03-23T14:51:04;10.27;;;6.93;;
80694;SDS011;70059;42.702;23.312;2024-03-23T14:53:41;7.57;;;6.75;;
80694;SDS011;70059;42.702;23.312;2024-03-23T14:56:11;7.57;;;6.65;;
80694;SDS011;70059;42.702;23.312;2024-03-23T14:58:47;6.75;;;6.25;;
80694;SDS011;70059;42.702;23.312;2024-03-23T15:01:18;7.13;;;6.38;;
80694;SDS011;70059;42.702;23.312;2024-03-23T15:03:44;7.15;;;6.55;;
80694;SDS011;70059;42.702;23.312;2024-03-23T15:06:09;7.57;;;6.70;;
80694;SDS011;70059;42.702;23.312;2024-03-23T15:08:35;7.50;;;6.80;;
80694;SDS011;70059;42.702;23.312;2024-03-23T15:11:06;7.72;;;6.93;;
80694;SDS011;70059;42.702;23.312;2024-03-23T15:13:33;8.48;;;6.60;;
80694;SDS011;70059;42.702;23.312;2024-03-23T15:16:03;7.78;;;6.97;;
80694;SDS011;70059;42.702;23.312;2024-03-23T15:18:29;8.00;;;7.20;;
80694;SDS011;70059;42.702;23.312;2024-03-23T15:20:55;7.50;;;6.90;;
80694;SDS011;70059;42.702;23.312;2024-03-23T15:23:22;7.68;;;6.75;;
80694;SDS011;70059;42.702;23.312;2024-03-23T15:25:55;7.68;;;6.95;;
80694;SDS011;70059;42.702;23.312;2024-03-23T15:28:22;7.93;;;7.22;;
80694;SDS011;70059;42.702;23.312;2024-03-23T15:30:48;10.38;;;8.70;;